createdAt,value
2019-01-08T00:01:31.678Z,10.27
2019-01-08T00:02:31.696Z,10.93
2019-01-08T00:04:24.745Z,11.88
2019-01-08T00:05:24.790Z,11.69
2019-01-08T00:07:17.783Z,12.26
2019-01-08T00:08:17.836Z,13.02
2019-01-08T00:10:10.815Z,14.26
2019-01-08T00:11:10.870Z,15.11
2019-01-08T00:13:03.882Z,15.97
2019-01-08T00:14:03.925Z,15.59
2019-01-08T00:15:56.934Z,15.40
2019-01-08T00:16:56.982Z,15.31
2019-01-08T00:18:49.966Z,16.83
2019-01-08T00:19:50.011Z,17.30
2019-01-08T00:21:43.004Z,18.26
2019-01-08T00:22:43.076Z,18.54
2019-01-08T00:24:36.623Z,19.39
2019-01-08T00:25:36.140Z,20.82
2019-01-08T00:27:29.599Z,22.25
2019-01-08T00:28:29.643Z,23.48
2019-01-08T00:30:23.210Z,24.81
2019-01-08T00:31:23.211Z,24.72
2019-01-08T00:33:28.833Z,22.81
2019-01-08T00:34:28.865Z,23.20
2019-01-08T00:36:21.857Z,21.96
2019-01-08T00:37:21.946Z,21.58
2019-01-08T00:39:15.957Z,21.11
2019-01-08T00:40:15.961Z,21.11
2019-01-08T00:42:08.979Z,21.11
2019-01-08T00:43:09.010Z,20.92
2019-01-08T00:45:02.052Z,20.73
2019-01-08T00:46:02.084Z,20.63
2019-01-08T00:47:55.068Z,21.01
2019-01-08T00:48:55.112Z,21.30
2019-01-08T00:51:10.860Z,21.20
2019-01-08T00:52:10.928Z,22.72
2019-01-08T00:54:03.894Z,22.91
2019-01-08T00:55:03.946Z,22.06
2019-01-08T00:56:56.939Z,22.81
2019-01-08T00:57:56.997Z,24.24
2019-01-08T00:59:49.996Z,25.01
2019-01-08T01:00:50.041Z,24.91
2019-01-08T01:02:43.028Z,22.63
2019-01-08T01:03:43.117Z,24.34
2019-01-08T01:05:36.082Z,23.96
2019-01-08T01:06:36.124Z,22.72
2019-01-08T01:08:29.131Z,21.01
2019-01-08T01:09:29.215Z,19.87
2019-01-08T01:11:22.157Z,21.30
2019-01-08T01:12:22.208Z,21.77
2019-01-08T01:14:15.209Z,22.72
2019-01-08T01:15:15.273Z,22.72
2019-01-08T01:17:08.269Z,23.86
2019-01-08T01:18:08.333Z,23.86
2019-01-08T01:20:01.305Z,24.72
2019-01-08T01:21:01.377Z,24.43
2019-01-08T01:22:54.336Z,22.44
2019-01-08T01:23:54.394Z,22.81
2019-01-08T01:25:47.390Z,22.34
2019-01-08T01:26:47.441Z,22.44
2019-01-08T01:28:40.477Z,21.67
2019-01-08T01:29:40.499Z,21.48
2019-01-08T01:31:33.536Z,22.15
2019-01-08T01:32:33.559Z,22.25
2019-01-08T01:34:26.740Z,21.96
2019-01-08T01:35:26.615Z,21.39
2019-01-08T01:37:19.603Z,21.20
2019-01-08T01:38:19.654Z,20.73
2019-01-08T01:40:12.671Z,20.34
2019-01-08T01:41:12.727Z,20.15
2019-01-08T01:43:05.782Z,21.96
2019-01-08T01:44:05.852Z,23.58
2019-01-08T01:45:58.769Z,23.58
2019-01-08T01:46:58.828Z,22.25
2019-01-08T01:48:51.804Z,22.25
2019-01-08T01:49:51.855Z,24.24
2019-01-08T01:51:46.421Z,22.34
2019-01-08T01:52:46.406Z,23.67
2019-01-08T01:54:39.911Z,23.96
2019-01-08T01:55:39.438Z,24.15
2019-01-08T01:57:32.939Z,24.62
2019-01-08T01:58:32.477Z,24.62
2019-01-08T02:00:25.473Z,26.05
2019-01-08T02:01:25.504Z,25.67
2019-01-08T02:03:18.498Z,26.34
2019-01-08T02:04:18.559Z,27.95
2019-01-08T02:06:11.530Z,27.95
2019-01-08T02:07:11.587Z,29.19
2019-01-08T02:09:04.566Z,28.71
2019-01-08T02:10:04.644Z,28.05
2019-01-08T02:11:57.617Z,28.71
2019-01-08T02:12:57.669Z,27.38
2019-01-08T02:14:50.737Z,26.14
2019-01-08T02:15:50.717Z,25.76
2019-01-08T02:17:43.705Z,27.95
2019-01-08T02:18:43.772Z,27.95
2019-01-08T02:20:36.740Z,26.43
2019-01-08T02:21:36.812Z,29.19
2019-01-08T02:23:29.820Z,30.99
2019-01-08T02:24:29.849Z,28.62
2019-01-08T02:26:22.825Z,26.90
2019-01-08T02:27:22.869Z,28.90
2019-01-08T02:29:16.618Z,29.19
2019-01-08T02:30:15.906Z,28.42
2019-01-08T02:32:08.906Z,27.48
2019-01-08T02:33:08.948Z,27.95
2019-01-08T02:35:01.932Z,28.71
2019-01-08T02:36:02.064Z,27.48
2019-01-08T02:37:54.981Z,25.67
2019-01-08T02:38:55.023Z,26.90
2019-01-08T02:40:48.103Z,27.57
2019-01-08T02:41:48.212Z,26.72
2019-01-08T02:43:41.166Z,26.81
2019-01-08T02:44:41.252Z,26.90
2019-01-08T02:46:34.373Z,25.67
2019-01-08T02:47:34.216Z,24.43
2019-01-08T02:49:27.215Z,25.09
2019-01-08T02:50:27.297Z,25.20
2019-01-08T02:52:20.289Z,25.67
2019-01-08T02:53:20.326Z,25.10
2019-01-08T02:55:13.346Z,26.42
2019-01-08T02:56:13.370Z,25.46
2019-01-08T02:58:06.401Z,24.99
2019-01-08T02:59:06.426Z,24.52
2019-01-08T03:00:59.464Z,23.66
2019-01-08T03:01:59.507Z,23.19
2019-01-08T03:03:52.483Z,23.57
2019-01-08T03:04:52.560Z,23.66
2019-01-08T03:06:45.508Z,23.57
2019-01-08T03:07:45.563Z,22.42
2019-01-08T03:09:38.542Z,23.66
2019-01-08T03:10:38.592Z,23.66
2019-01-08T03:12:31.572Z,23.28
2019-01-08T03:13:31.645Z,23.00
2019-01-08T03:15:24.629Z,24.04
2019-01-08T03:16:24.662Z,23.19
2019-01-08T03:18:17.643Z,24.42
2019-01-08T03:19:17.690Z,23.57
2019-01-08T03:21:10.684Z,23.28
2019-01-08T03:22:10.742Z,23.00
2019-01-08T03:24:03.762Z,23.66
2019-01-08T03:25:03.782Z,23.57
2019-01-08T03:26:56.760Z,23.00
2019-01-08T03:27:56.814Z,23.38
2019-01-08T03:29:49.805Z,23.85
2019-01-08T03:30:49.873Z,22.71
2019-01-08T03:32:42.866Z,22.42
2019-01-08T03:33:42.926Z,22.71
2019-01-08T03:35:35.893Z,22.24
2019-01-08T03:36:35.993Z,22.42
2019-01-08T03:38:28.927Z,22.90
2019-01-08T03:39:28.981Z,22.61
2019-01-08T03:41:21.991Z,22.24
2019-01-08T03:42:22.041Z,22.24
2019-01-08T03:44:15.047Z,22.42
2019-01-08T03:45:15.123Z,23.66
2019-01-08T03:47:08.092Z,23.66
2019-01-08T03:48:08.123Z,23.85
2019-01-08T03:50:01.173Z,24.42
2019-01-08T03:51:01.197Z,24.42
2019-01-08T03:52:54.177Z,23.94
2019-01-08T03:53:54.229Z,23.38
2019-01-08T03:55:47.194Z,24.13
2019-01-08T03:56:47.245Z,24.13
2019-01-08T03:58:40.223Z,24.71
2019-01-08T03:59:42.059Z,24.71
2019-01-08T04:01:34.764Z,24.61
2019-01-08T04:02:34.830Z,25.09
2019-01-08T04:04:27.795Z,24.90
2019-01-08T04:05:27.852Z,24.33
2019-01-08T04:07:21.339Z,23.66
2019-01-08T04:08:21.387Z,23.57
2019-01-08T04:10:14.468Z,23.66
2019-01-08T04:11:14.422Z,23.00
2019-01-08T04:13:07.398Z,22.52
2019-01-08T04:14:07.467Z,23.38
2019-01-08T04:16:00.438Z,23.66
2019-01-08T04:17:00.487Z,23.28
2019-01-08T04:18:53.494Z,22.24
2019-01-08T04:19:53.519Z,22.71
2019-01-08T04:21:46.521Z,22.61
2019-01-08T04:22:46.589Z,22.33
2019-01-08T04:24:39.596Z,22.14
2019-01-08T04:25:39.609Z,21.19
2019-01-08T04:27:32.609Z,21.19
2019-01-08T04:28:32.670Z,20.14
2019-01-08T04:30:25.647Z,19.29
2019-01-08T04:31:25.700Z,18.81
2019-01-08T04:33:18.700Z,17.20
2019-01-08T04:34:18.746Z,16.72
2019-01-08T04:36:11.777Z,15.68
2019-01-08T04:37:11.830Z,15.11
2019-01-08T04:39:04.790Z,14.25
2019-01-08T04:40:04.845Z,13.58
2019-01-08T04:41:57.827Z,12.54
2019-01-08T04:42:57.882Z,12.44
2019-01-08T04:44:50.854Z,12.06
2019-01-08T04:45:50.914Z,11.87
2019-01-08T04:47:43.892Z,11.87
2019-01-08T04:48:43.947Z,12.06
2019-01-08T04:50:36.923Z,16.52
2019-01-08T04:51:36.977Z,19.20
2019-01-08T04:53:29.978Z,21.00
2019-01-08T04:54:30.010Z,21.95
2019-01-08T04:56:22.982Z,21.66
2019-01-08T04:57:23.039Z,21.76
2019-01-08T04:59:16.027Z,22.61
2019-01-08T05:00:16.076Z,22.61
2019-01-08T05:02:09.055Z,22.41
2019-01-08T05:03:09.113Z,21.56
2019-01-08T05:05:02.104Z,22.32
2019-01-08T05:06:02.143Z,21.67
2019-01-08T05:07:55.126Z,23.65
2019-01-08T05:08:55.194Z,24.52
2019-01-08T05:10:48.157Z,24.52
2019-01-08T05:11:48.214Z,23.74
2019-01-08T05:13:41.198Z,24.60
2019-01-08T05:14:41.245Z,23.84
2019-01-08T05:16:34.223Z,23.84
2019-01-08T05:17:34.277Z,23.08
2019-01-08T05:19:27.259Z,23.46
2019-01-08T05:20:27.309Z,23.84
2019-01-08T05:22:20.296Z,24.90
2019-01-08T05:23:20.350Z,24.71
2019-01-08T05:25:13.339Z,25.85
2019-01-08T05:26:13.386Z,24.90
2019-01-08T05:28:06.383Z,23.85
2019-01-08T05:29:06.423Z,24.52
2019-01-08T05:30:59.396Z,21.95
2019-01-08T05:31:59.451Z,21.95
2019-01-08T05:33:52.632Z,21.28
2019-01-08T05:34:52.488Z,20.53
2019-01-08T05:36:45.485Z,20.43
2019-01-08T05:37:45.520Z,20.90
2019-01-08T05:39:38.501Z,20.43
2019-01-08T05:40:38.566Z,19.86
2019-01-08T05:42:31.526Z,17.86
2019-01-08T05:43:31.581Z,18.24
2019-01-08T05:45:24.564Z,18.80
2019-01-08T05:46:24.612Z,18.90
2019-01-08T05:48:17.584Z,21.08
2019-01-08T05:49:17.639Z,20.51
2019-01-08T05:51:11.136Z,21.18
2019-01-08T05:52:11.180Z,21.19
2019-01-08T05:54:04.194Z,21.94
2019-01-08T05:55:04.212Z,21.84
2019-01-08T05:56:57.207Z,21.94
2019-01-08T05:57:57.245Z,20.99
2019-01-08T05:59:50.235Z,22.13
2019-01-08T06:00:50.278Z,23.27
2019-01-08T06:02:43.262Z,24.12
2019-01-08T06:03:43.317Z,22.70
2019-01-08T06:05:36.299Z,22.60
2019-01-08T06:06:36.348Z,22.51
2019-01-08T06:08:29.323Z,22.70
2019-01-08T06:09:29.381Z,23.18
2019-01-08T06:11:22.362Z,23.65
2019-01-08T06:12:22.409Z,25.07
2019-01-08T06:14:15.383Z,24.98
2019-01-08T06:15:15.441Z,25.84
2019-01-08T06:17:08.428Z,26.97
2019-01-08T06:18:08.469Z,27.26
2019-01-08T06:20:01.470Z,28.68
2019-01-08T06:21:01.518Z,28.49
2019-01-08T06:22:54.494Z,30.60
2019-01-08T06:23:54.552Z,29.93
2019-01-08T06:25:47.539Z,27.16
2019-01-08T06:26:47.585Z,26.88
2019-01-08T06:28:40.585Z,30.49
2019-01-08T06:29:40.619Z,30.69
2019-01-08T06:31:33.602Z,29.06
2019-01-08T06:32:33.648Z,27.94
2019-01-08T06:34:26.624Z,29.84
2019-01-08T06:35:26.680Z,29.84
2019-01-08T06:37:19.666Z,30.12
2019-01-08T06:38:19.718Z,29.92
2019-01-08T06:40:12.694Z,27.92
2019-01-08T06:41:12.749Z,28.03
2019-01-08T06:43:05.736Z,26.69
2019-01-08T06:44:05.781Z,29.25
2019-01-08T06:45:58.762Z,28.51
2019-01-08T06:46:58.809Z,28.88
2019-01-08T06:48:51.786Z,26.88
2019-01-08T06:49:51.845Z,28.70
2019-01-08T06:51:45.348Z,28.79
2019-01-08T06:52:45.393Z,30.41
2019-01-08T06:54:38.368Z,32.40
2019-01-08T06:55:38.486Z,33.45
2019-01-08T06:57:31.413Z,31.84
2019-01-08T06:58:31.460Z,32.40
2019-01-08T07:00:24.437Z,35.25
2019-01-08T07:01:24.493Z,34.50
2019-01-08T07:03:17.480Z,35.63
2019-01-08T07:04:17.527Z,32.88
2019-01-08T07:06:10.510Z,32.59
2019-01-08T07:07:10.562Z,34.69
2019-01-08T07:09:03.549Z,33.26
2019-01-08T07:10:03.598Z,33.17
2019-01-08T07:11:56.625Z,33.64
2019-01-08T07:12:56.648Z,33.64
2019-01-08T07:14:49.627Z,34.40
2019-01-08T07:15:49.686Z,34.88
2019-01-08T07:17:42.672Z,36.68
2019-01-08T07:18:42.714Z,36.87
2019-01-08T07:20:35.705Z,36.87
2019-01-08T07:21:35.765Z,38.20
2019-01-08T07:23:28.734Z,40.95
2019-01-08T07:24:28.784Z,40.10
2019-01-08T07:26:21.761Z,40.20
2019-01-08T07:27:21.815Z,40.20
2019-01-08T07:29:14.804Z,40.39
2019-01-08T07:30:14.852Z,38.58
2019-01-08T07:32:07.828Z,39.53
2019-01-08T07:33:07.882Z,40.95
2019-01-08T07:35:00.871Z,43.05
2019-01-08T07:36:00.913Z,41.24
2019-01-08T07:37:53.904Z,41.91
2019-01-08T07:38:53.952Z,42.47
2019-01-08T07:40:46.943Z,43.24
2019-01-08T07:41:46.993Z,42.38
2019-01-08T07:43:39.977Z,42.47
2019-01-08T07:44:40.027Z,40.10
2019-01-08T07:46:33.006Z,36.87
2019-01-08T07:47:33.060Z,36.58
2019-01-08T07:49:26.048Z,35.16
2019-01-08T07:50:26.111Z,34.40
2019-01-08T07:52:19.072Z,35.35
2019-01-08T07:53:19.129Z,35.25
2019-01-08T07:55:12.115Z,36.85
2019-01-08T07:56:12.163Z,37.82
2019-01-08T07:58:05.139Z,38.96
2019-01-08T07:59:05.196Z,38.20
2019-01-08T08:00:58.183Z,39.06
2019-01-08T08:01:58.228Z,36.77
2019-01-08T08:03:51.212Z,40.67
2019-01-08T08:04:51.265Z,40.67
2019-01-08T08:06:44.237Z,39.81
2019-01-08T08:07:44.292Z,42.19
2019-01-08T08:09:37.300Z,39.53
2019-01-08T08:10:37.349Z,37.06
2019-01-08T08:12:30.323Z,37.82
2019-01-08T08:13:30.380Z,37.82
2019-01-08T08:15:23.366Z,35.25
2019-01-08T08:16:23.421Z,35.54
2019-01-08T08:18:16.410Z,31.36
2019-01-08T08:19:16.451Z,32.88
2019-01-08T08:21:09.433Z,32.48
2019-01-08T08:22:09.471Z,31.72
2019-01-08T08:24:02.460Z,29.82
2019-01-08T08:25:02.516Z,28.88
2019-01-08T08:26:55.505Z,27.45
2019-01-08T08:27:55.550Z,26.69
2019-01-08T08:29:48.538Z,26.40
2019-01-08T08:30:48.580Z,27.45
2019-01-08T08:32:41.563Z,29.35
2019-01-08T08:33:41.618Z,29.63
2019-01-08T08:35:34.607Z,28.78
2019-01-08T08:36:34.660Z,27.92
2019-01-08T08:38:27.630Z,25.17
2019-01-08T08:39:27.688Z,26.50
2019-01-08T08:41:20.679Z,26.88
2019-01-08T08:42:20.729Z,27.73
2019-01-08T08:44:13.706Z,28.21
2019-01-08T08:45:13.762Z,27.56
2019-01-08T08:47:06.746Z,25.94
2019-01-08T08:48:06.799Z,26.03
2019-01-08T08:49:59.789Z,25.75
2019-01-08T08:50:59.862Z,25.64
2019-01-08T08:52:52.806Z,25.55
2019-01-08T08:53:52.982Z,25.64
2019-01-08T08:55:45.847Z,24.41
2019-01-08T08:56:45.895Z,23.74
2019-01-08T08:58:38.870Z,22.13
2019-01-08T08:59:38.928Z,20.99
2019-01-08T09:01:31.910Z,20.51
2019-01-08T09:02:31.956Z,20.89
2019-01-08T09:04:24.940Z,20.04
2019-01-08T09:05:24.998Z,19.47
2019-01-08T09:07:17.988Z,18.24
2019-01-08T09:08:18.031Z,18.04
2019-01-08T09:10:11.005Z,17.38
2019-01-08T09:11:11.064Z,16.52
2019-01-08T09:13:04.062Z,15.95
2019-01-08T09:14:04.115Z,15.39
2019-01-08T09:15:57.098Z,15.10
2019-01-08T09:16:57.148Z,15.10
2019-01-08T09:18:50.126Z,15.00
2019-01-08T09:19:50.182Z,15.00
2019-01-08T09:21:43.168Z,14.53
2019-01-08T09:22:43.212Z,14.81
2019-01-08T09:24:36.185Z,14.62
2019-01-08T09:25:36.231Z,15.20
2019-01-08T09:27:29.226Z,15.58
2019-01-08T09:28:29.276Z,15.48
2019-01-08T09:30:22.252Z,16.14
2019-01-08T09:31:22.309Z,16.14
2019-01-08T09:33:15.295Z,16.52
2019-01-08T09:34:15.342Z,17.00
2019-01-08T09:36:08.325Z,17.19
2019-01-08T09:37:08.377Z,16.91
2019-01-08T09:39:01.349Z,17.10
2019-01-08T09:40:01.405Z,17.00
2019-01-08T09:41:54.387Z,16.81
2019-01-08T09:42:54.436Z,17.19
2019-01-08T09:44:47.431Z,16.82
2019-01-08T09:45:47.489Z,17.39
2019-01-08T09:47:40.471Z,19.48
2019-01-08T09:48:40.520Z,19.57
2019-01-08T09:50:33.498Z,20.72
2019-01-08T09:51:33.552Z,20.90
2019-01-08T09:53:26.550Z,21.67
2019-01-08T09:54:26.581Z,22.52
2019-01-08T09:56:19.567Z,23.19
2019-01-08T09:57:19.616Z,23.57
2019-01-08T09:59:12.591Z,25.37
2019-01-08T10:00:12.645Z,26.04
2019-01-08T10:02:05.627Z,25.94
2019-01-08T10:03:05.676Z,26.23
2019-01-08T10:04:58.655Z,27.08
2019-01-08T10:05:58.711Z,28.70
2019-01-08T10:07:51.699Z,29.36
2019-01-08T10:08:51.752Z,28.60
2019-01-08T10:10:44.721Z,29.08
2019-01-08T10:11:44.777Z,28.79
2019-01-08T10:13:37.764Z,29.17
2019-01-08T10:14:37.810Z,29.17
2019-01-08T10:16:30.808Z,30.31
2019-01-08T10:17:30.868Z,29.08
2019-01-08T10:19:23.849Z,28.79
2019-01-08T10:20:23.896Z,28.33
2019-01-08T10:22:16.884Z,28.60
2019-01-08T10:23:16.930Z,26.79
2019-01-08T10:25:09.925Z,26.61
2019-01-08T10:26:09.960Z,26.98
2019-01-08T10:28:02.941Z,28.79
2019-01-08T10:29:02.985Z,27.37
2019-01-08T10:30:55.968Z,28.52
2019-01-08T10:31:56.024Z,30.12
2019-01-08T10:33:49.011Z,30.62
2019-01-08T10:34:49.057Z,30.90
2019-01-08T10:36:42.034Z,32.04
2019-01-08T10:37:42.089Z,32.70
2019-01-08T10:39:35.077Z,32.61
2019-01-08T10:40:35.124Z,32.80
2019-01-08T10:42:28.105Z,32.23
2019-01-08T10:43:28.155Z,32.80
2019-01-08T10:45:21.140Z,31.66
2019-01-08T10:46:21.193Z,31.28
2019-01-08T10:48:14.189Z,27.00
2019-01-08T10:49:14.241Z,24.62
2019-01-08T10:51:07.727Z,23.29
2019-01-08T10:52:07.778Z,23.57
2019-01-08T10:54:00.759Z,21.47
2019-01-08T10:55:00.809Z,21.09
2019-01-08T10:56:53.787Z,20.81
2019-01-08T10:57:53.846Z,21.00
2019-01-08T10:59:46.832Z,22.44
2019-01-08T11:00:46.878Z,24.91
2019-01-08T11:02:39.871Z,25.95
2019-01-08T11:03:39.912Z,25.67
2019-01-08T11:05:32.890Z,30.23
2019-01-08T11:06:32.946Z,31.18
2019-01-08T11:08:25.946Z,29.28
2019-01-08T11:09:26.000Z,29.28
2019-01-08T11:11:18.974Z,28.71
2019-01-08T11:12:19.033Z,26.43
2019-01-08T11:14:12.021Z,24.71
2019-01-08T11:15:12.067Z,23.75
2019-01-08T11:17:05.051Z,21.67
2019-01-08T11:18:05.095Z,21.67
2019-01-08T11:19:58.078Z,20.14
2019-01-08T11:20:58.129Z,19.67
2019-01-08T11:22:51.133Z,22.90
2019-01-08T11:23:51.186Z,24.33
2019-01-08T11:25:44.160Z,24.61
2019-01-08T11:26:44.213Z,24.42
2019-01-08T11:28:37.202Z,25.18
2019-01-08T11:29:37.248Z,26.51
2019-01-08T11:31:30.224Z,29.38
2019-01-08T11:32:30.277Z,30.90
2019-01-08T11:34:23.265Z,30.71
2019-01-08T11:35:23.311Z,29.95
2019-01-08T11:37:16.287Z,28.33
2019-01-08T11:38:16.342Z,28.42
2019-01-08T11:40:09.340Z,34.51
2019-01-08T11:41:09.380Z,38.70
2019-01-08T11:43:02.387Z,40.31
2019-01-08T11:44:02.411Z,40.59
2019-01-08T11:45:55.384Z,40.50
2019-01-08T11:46:55.441Z,40.22
2019-01-08T11:48:48.437Z,41.74
2019-01-08T11:49:48.482Z,44.49
2019-01-08T11:51:41.965Z,44.49
2019-01-08T11:52:42.015Z,43.83
2019-01-08T11:54:40.921Z,43.64
2019-01-08T11:55:35.047Z,48.77
2019-01-08T11:57:28.020Z,49.65
2019-01-08T11:58:28.079Z,51.06
2019-01-08T12:00:21.076Z,50.32
2019-01-08T12:01:21.126Z,53.46
2019-01-08T12:03:14.108Z,53.08
2019-01-08T12:04:14.160Z,51.65
2019-01-08T12:06:07.153Z,51.84
2019-01-08T12:07:07.203Z,52.70
2019-01-08T12:09:00.201Z,52.61
2019-01-08T12:10:00.231Z,52.89
2019-01-08T12:11:53.208Z,52.22
2019-01-08T12:12:53.288Z,51.93
2019-01-08T12:14:46.254Z,51.75
2019-01-08T12:15:46.298Z,51.46
2019-01-08T12:17:39.278Z,51.56
2019-01-08T12:18:39.332Z,52.03
2019-01-08T12:20:32.322Z,50.51
2019-01-08T12:21:32.370Z,50.42
2019-01-08T12:23:25.348Z,49.94
2019-01-08T12:24:25.402Z,47.16
2019-01-08T12:26:18.386Z,49.44
2019-01-08T12:27:18.434Z,49.91
2019-01-08T12:29:11.421Z,50.48
2019-01-08T12:30:11.468Z,49.63
2019-01-08T12:32:06.214Z,50.89
2019-01-08T12:33:04.509Z,51.43
2019-01-08T12:34:57.495Z,52.76
2019-01-08T12:35:57.540Z,52.10
2019-01-08T12:37:50.522Z,50.77
2019-01-08T12:38:50.574Z,50.29
2019-01-08T12:40:43.563Z,49.94
2019-01-08T12:41:43.610Z,50.42
2019-01-08T12:43:36.588Z,55.08
2019-01-08T12:44:36.647Z,57.55
2019-01-08T12:46:29.631Z,58.03
2019-01-08T12:47:29.679Z,56.60
2019-01-08T12:49:22.658Z,54.79
2019-01-08T12:50:22.714Z,55.83
2019-01-08T12:52:16.217Z,57.55
2019-01-08T12:53:16.252Z,54.79
2019-01-08T12:55:09.343Z,61.26
2019-01-08T12:56:09.293Z,59.17
2019-01-08T12:58:02.271Z,59.83
2019-01-08T12:59:02.326Z,62.88
2019-01-08T13:00:55.351Z,62.02
2019-01-08T13:01:55.361Z,63.54
2019-01-08T13:03:48.346Z,63.26
2019-01-08T13:04:48.394Z,63.83
2019-01-08T13:06:43.525Z,62.59
2019-01-08T13:07:41.426Z,61.26
2019-01-08T13:09:34.407Z,61.26
2019-01-08T13:10:34.462Z,61.64
2019-01-08T13:12:27.453Z,63.92
2019-01-08T13:13:27.504Z,63.35
2019-01-08T13:15:20.487Z,62.40
2019-01-08T13:16:20.535Z,61.35
2019-01-08T13:18:13.510Z,59.07
2019-01-08T13:19:13.567Z,57.65
2019-01-08T13:21:06.556Z,56.88
2019-01-08T13:22:06.606Z,53.55
2019-01-08T13:23:59.586Z,52.61
2019-01-08T13:24:59.644Z,50.23
2019-01-08T13:26:52.630Z,49.73
2019-01-08T13:27:52.674Z,47.73
2019-01-08T13:29:45.651Z,45.92
2019-01-08T13:30:45.708Z,45.07
2019-01-08T13:32:38.713Z,44.31
2019-01-08T13:33:38.748Z,45.45
2019-01-08T13:35:31.731Z,44.40
2019-01-08T13:36:31.802Z,41.36
2019-01-08T13:38:24.777Z,54.00
2019-01-08T13:39:24.834Z,55.24
2019-01-08T13:41:17.821Z,55.93
2019-01-08T13:42:17.869Z,57.36
2019-01-08T13:44:10.852Z,57.62
2019-01-08T13:45:10.906Z,55.15
2019-01-08T13:47:03.880Z,50.10
2019-01-08T13:48:03.934Z,48.11
2019-01-08T13:49:56.917Z,44.31
2019-01-08T13:50:56.971Z,41.24
2019-01-08T13:52:50.064Z,37.73
2019-01-08T13:53:50.008Z,36.68
2019-01-08T13:55:42.989Z,36.77
2019-01-08T13:56:43.047Z,36.58
2019-01-08T13:58:36.030Z,35.25
2019-01-08T13:59:36.078Z,36.87
2019-01-08T14:01:29.065Z,35.73
2019-01-08T14:02:31.944Z,37.73
2019-01-08T14:04:22.094Z,37.61
2019-01-08T14:05:22.149Z,40.39
2019-01-08T14:07:15.139Z,42.46
2019-01-08T14:08:15.181Z,42.67
2019-01-08T14:10:08.172Z,43.90
2019-01-08T14:11:08.230Z,42.67
2019-01-08T14:13:01.222Z,43.80
2019-01-08T14:14:01.264Z,44.38
2019-01-08T14:15:54.245Z,46.56
2019-01-08T14:16:54.302Z,44.85
2019-01-08T14:18:47.308Z,42.47
2019-01-08T14:19:47.339Z,37.44
2019-01-08T14:21:40.316Z,30.96
2019-01-08T14:22:40.369Z,28.02
2019-01-08T14:24:33.360Z,24.98
2019-01-08T14:25:33.414Z,23.65
2019-01-08T14:27:26.394Z,22.21
2019-01-08T14:28:26.442Z,22.12
2019-01-08T14:30:19.428Z,22.21
2019-01-08T14:31:19.482Z,22.88
2019-01-08T14:33:12.466Z,23.73
2019-01-08T14:34:12.516Z,23.73
2019-01-08T14:36:05.493Z,23.83
2019-01-08T14:37:05.549Z,24.58
2019-01-08T14:38:58.531Z,24.30
2019-01-08T14:39:58.577Z,23.35
2019-01-08T14:41:51.574Z,24.21
2019-01-08T14:42:51.630Z,24.40
2019-01-08T14:44:44.613Z,25.25
2019-01-08T14:45:44.666Z,25.44
2019-01-08T14:47:37.641Z,26.88
2019-01-08T14:48:37.700Z,26.97
2019-01-08T14:50:30.693Z,26.59
2019-01-08T14:51:30.728Z,26.50
2019-01-08T14:53:23.714Z,28.68
2019-01-08T14:54:23.760Z,29.63
2019-01-08T14:56:16.739Z,29.92
2019-01-08T14:57:16.796Z,31.92
2019-01-08T14:59:09.778Z,32.20
2019-01-08T15:00:09.825Z,31.05
2019-01-08T15:02:02.807Z,31.92
2019-01-08T15:03:02.860Z,33.24
2019-01-08T15:04:57.902Z,37.52
2019-01-08T15:05:55.892Z,37.90
2019-01-08T15:07:48.867Z,37.52
2019-01-08T15:08:48.924Z,36.85
2019-01-08T15:10:41.909Z,38.56
2019-01-08T15:11:41.957Z,37.52
2019-01-08T15:13:34.953Z,36.28
2019-01-08T15:14:35.010Z,36.66
2019-01-08T15:16:27.991Z,36.76
2019-01-08T15:17:28.046Z,36.28
2019-01-08T15:19:21.022Z,38.94
2019-01-08T15:20:21.071Z,39.61
2019-01-08T15:22:14.066Z,41.31
2019-01-08T15:23:14.113Z,41.60
2019-01-08T15:25:07.095Z,40.27
2019-01-08T15:26:07.143Z,41.13
2019-01-08T15:28:00.120Z,38.28
2019-01-08T15:29:00.175Z,39.32
2019-01-08T15:30:53.157Z,39.51
2019-01-08T15:31:53.206Z,40.56
2019-01-08T15:33:46.182Z,41.03
2019-01-08T15:34:46.238Z,42.74
2019-01-08T15:36:39.224Z,43.12
2019-01-08T15:37:39.278Z,40.84
2019-01-08T15:39:32.257Z,36.66
2019-01-08T15:40:32.307Z,35.24
2019-01-08T15:42:25.280Z,30.58
2019-01-08T15:43:25.336Z,29.06
2019-01-08T15:45:18.332Z,29.06
2019-01-08T15:46:18.381Z,27.55
2019-01-08T15:48:11.373Z,24.98
2019-01-08T15:49:11.419Z,24.41
2019-01-08T15:51:04.406Z,22.40
2019-01-08T15:52:04.455Z,22.12
2019-01-08T15:53:58.207Z,23.64
2019-01-08T15:54:57.489Z,24.21
2019-01-08T15:56:50.475Z,24.30
2019-01-08T15:57:50.517Z,23.64
2019-01-08T15:59:43.531Z,24.77
2019-01-08T16:00:43.551Z,25.92
2019-01-08T16:02:36.529Z,25.63
2019-01-08T16:03:36.585Z,24.96
2019-01-08T16:05:29.569Z,24.49
2019-01-08T16:06:29.614Z,24.02
2019-01-08T16:08:22.601Z,24.58
2019-01-08T16:09:22.655Z,23.64
2019-01-08T16:11:15.638Z,24.21
2019-01-08T16:12:15.689Z,24.77
2019-01-08T16:14:08.663Z,24.40
2019-01-08T16:15:08.718Z,23.25
2019-01-08T16:17:01.715Z,24.30
2019-01-08T16:18:01.774Z,25.44
2019-01-08T16:19:54.774Z,24.49
2019-01-08T16:20:54.802Z,25.44
2019-01-08T16:22:47.787Z,25.63
2019-01-08T16:23:47.837Z,27.25
2019-01-08T16:25:40.823Z,28.29
2019-01-08T16:26:40.914Z,29.05
2019-01-08T16:28:33.847Z,30.76
2019-01-08T16:29:33.897Z,31.90
2019-01-08T16:31:26.887Z,29.14
2019-01-08T16:32:26.933Z,30.57
2019-01-08T16:34:19.918Z,34.75
2019-01-08T16:35:19.969Z,36.09
2019-01-08T16:37:12.957Z,37.42
2019-01-08T16:38:13.007Z,38.75
2019-01-08T16:40:05.981Z,40.84
2019-01-08T16:41:06.039Z,39.13
2019-01-08T16:42:59.021Z,37.99
2019-01-08T16:43:59.070Z,38.18
2019-01-08T16:45:52.068Z,38.37
2019-01-08T16:46:52.099Z,36.19
2019-01-08T16:48:45.090Z,34.38
2019-01-08T16:49:45.149Z,33.62
2019-01-08T16:51:38.643Z,34.67
2019-01-08T16:52:38.689Z,34.57
2019-01-08T16:54:43.327Z,38.09
2019-01-08T16:55:43.256Z,39.70
2019-01-08T16:57:36.246Z,39.61
2019-01-08T16:58:36.274Z,39.32
2019-01-08T17:00:29.237Z,37.99
2019-01-08T17:01:29.293Z,37.61
2019-01-08T17:03:24.855Z,41.69
2019-01-08T17:04:22.355Z,41.79
2019-01-08T17:06:15.314Z,40.75
2019-01-08T17:07:15.349Z,40.65
2019-01-08T17:09:08.342Z,41.13
2019-01-08T17:10:08.446Z,39.32
2019-01-08T17:12:01.409Z,39.51
2019-01-08T17:13:01.430Z,40.65
2019-01-08T17:14:54.410Z,39.42
2019-01-08T17:15:54.464Z,40.46
2019-01-08T17:17:47.459Z,40.94
2019-01-08T17:18:47.535Z,41.69
2019-01-08T17:20:40.548Z,43.31
2019-01-08T17:21:40.533Z,45.78
2019-01-08T17:23:33.531Z,45.40
2019-01-08T17:24:33.566Z,44.64
2019-01-08T17:26:26.546Z,42.17
2019-01-08T17:27:26.605Z,41.98
2019-01-08T17:29:19.588Z,42.17
2019-01-08T17:30:19.665Z,43.88
2019-01-08T17:32:12.613Z,43.69
2019-01-08T17:33:12.673Z,42.36
2019-01-08T17:35:05.657Z,40.94
2019-01-08T17:36:05.686Z,42.27
2019-01-08T17:37:58.827Z,43.88
2019-01-08T17:38:58.725Z,42.65
2019-01-08T17:40:51.690Z,40.82
2019-01-08T17:41:51.746Z,39.87
2019-01-08T17:43:44.747Z,39.78
2019-01-08T17:44:44.805Z,40.16
2019-01-08T17:46:37.795Z,40.82
2019-01-08T17:47:37.864Z,41.30
2019-01-08T17:49:31.108Z,41.11
2019-01-08T17:50:31.363Z,40.34
2019-01-08T17:52:28.726Z,39.97
2019-01-08T17:53:26.494Z,39.40
2019-01-08T17:55:19.391Z,38.64
2019-01-08T17:56:19.374Z,38.92
2019-01-08T17:58:12.398Z,38.16
2019-01-08T17:59:12.411Z,38.64
2019-01-08T18:01:05.391Z,38.64
2019-01-08T18:02:05.456Z,40.34
2019-01-08T18:03:58.424Z,41.39
2019-01-08T18:04:58.468Z,41.86
2019-01-08T18:06:51.446Z,43.86
2019-01-08T18:07:51.496Z,43.86
2019-01-08T18:09:44.489Z,45.40
2019-01-08T18:10:44.537Z,46.33
2019-01-08T18:12:37.509Z,43.79
2019-01-08T18:13:37.568Z,44.43
2019-01-08T18:15:31.061Z,44.64
2019-01-08T18:16:31.098Z,44.64
2019-01-08T18:18:25.665Z,44.83
2019-01-08T18:19:25.725Z,45.31
2019-01-08T18:21:18.480Z,45.50
2019-01-08T18:22:18.631Z,44.45
2019-01-08T18:24:11.498Z,44.07
2019-01-08T18:25:11.551Z,44.26
2019-01-08T18:27:04.523Z,44.73
2019-01-08T18:28:04.621Z,45.59
2019-01-08T18:29:57.568Z,43.50
2019-01-08T18:30:57.629Z,43.76
2019-01-08T18:32:50.605Z,43.79
2019-01-08T18:33:51.691Z,43.88
2019-01-08T18:35:43.645Z,46.45